createdAt,value
2022-10-26T00:00:05.617Z,93.76
2022-10-26T00:02:57.362Z,93.78
2022-10-26T00:05:42.895Z,93.95
2022-10-26T00:08:28.194Z,93.64
2022-10-26T00:11:14.340Z,93.81
2022-10-26T00:13:59.838Z,93.41
2022-10-26T00:16:45.250Z,93.55
2022-10-26T00:19:33.881Z,93.40
2022-10-26T00:22:19.185Z,93.47
2022-10-26T00:25:05.519Z,93.98
2022-10-26T00:27:50.978Z,93.63
2022-10-26T00:30:39.685Z,93.62
2022-10-26T00:33:24.835Z,93.87
2022-10-26T00:36:13.642Z,93.64
2022-10-26T00:38:59.139Z,93.63
2022-10-26T00:41:44.571Z,93.56
2022-10-26T00:44:48.098Z,93.81
2022-10-26T00:47:53.695Z,93.38
2022-10-26T00:50:43.337Z,93.62
2022-10-26T00:53:29.869Z,93.96
2022-10-26T00:56:15.963Z,93.40
2022-10-26T00:59:06.537Z,93.82
2022-10-26T01:01:52.877Z,93.38
2022-10-26T01:04:38.123Z,93.55
2022-10-26T01:07:25.570Z,93.27
2022-10-26T01:10:11.463Z,93.46
2022-10-26T01:12:58.705Z,93.33
2022-10-26T01:15:56.687Z,93.40
2022-10-26T01:19:05.357Z,92.69
2022-10-26T01:22:02.103Z,92.95
2022-10-26T01:25:13.184Z,92.62
2022-10-26T01:28:02.468Z,92.71
2022-10-26T01:30:48.884Z,92.69
2022-10-26T01:33:46.907Z,92.76
2022-10-26T01:36:40.742Z,92.61
2022-10-26T01:39:41.530Z,93.00
2022-10-26T01:42:29.742Z,92.43
2022-10-26T01:45:16.468Z,92.68
2022-10-26T01:48:04.123Z,92.53
2022-10-26T01:50:53.606Z,92.55
2022-10-26T01:53:45.769Z,92.57
2022-10-26T01:56:36.127Z,92.38
2022-10-26T01:59:44.000Z,92.01
2022-10-26T02:03:00.268Z,92.03
2022-10-26T02:05:53.456Z,92.31
2022-10-26T02:09:01.684Z,92.37
2022-10-26T02:11:51.487Z,92.33
2022-10-26T02:14:43.858Z,92.38
2022-10-26T02:17:38.394Z,92.48
2022-10-26T02:20:28.394Z,92.35
2022-10-26T02:23:16.413Z,92.16
2022-10-26T02:26:03.457Z,91.98
2022-10-26T02:28:52.880Z,91.81
2022-10-26T02:31:40.670Z,91.95
2022-10-26T02:34:29.126Z,91.81
2022-10-26T02:37:17.320Z,92.04
2022-10-26T02:40:08.926Z,91.90
2022-10-26T02:42:59.771Z,92.26
2022-10-26T02:45:51.643Z,92.51
2022-10-26T02:48:37.867Z,92.92
2022-10-26T02:51:45.046Z,93.08
2022-10-26T02:54:40.590Z,92.84
2022-10-26T02:57:40.495Z,93.55
2022-10-26T03:00:25.975Z,93.62
2022-10-26T03:03:12.233Z,93.70
2022-10-26T03:05:57.607Z,94.02
2022-10-26T03:08:42.907Z,94.43
2022-10-26T03:11:28.382Z,94.36
2022-10-26T03:14:13.698Z,94.36
2022-10-26T03:16:59.017Z,94.14
2022-10-26T03:19:44.347Z,94.39
2022-10-26T03:22:29.875Z,94.14
2022-10-26T03:25:18.335Z,94.29
2022-10-26T03:28:05.322Z,94.13
2022-10-26T03:30:50.611Z,94.25
2022-10-26T03:36:21.053Z,94.27
2022-10-26T03:39:05.953Z,94.86
2022-10-26T03:41:51.392Z,94.55
2022-10-26T03:44:36.814Z,94.87
2022-10-26T03:47:22.135Z,94.68
2022-10-26T03:50:07.880Z,94.44
2022-10-26T03:52:53.355Z,94.47
2022-10-26T03:55:38.774Z,94.44
2022-10-26T04:01:14.512Z,93.77
2022-10-26T04:03:59.724Z,94.00
2022-10-26T04:06:48.128Z,93.90
2022-10-26T04:09:33.421Z,93.87
2022-10-26T04:12:18.940Z,93.97
2022-10-26T04:15:06.733Z,94.12
2022-10-26T04:18:02.098Z,94.28
2022-10-26T04:20:47.318Z,94.30
2022-10-26T04:23:32.387Z,94.42
2022-10-26T04:26:18.060Z,94.45
2022-10-26T04:29:06.644Z,94.25
2022-10-26T04:31:52.142Z,94.74
2022-10-26T04:34:37.292Z,94.72
2022-10-26T04:37:22.744Z,94.23
2022-10-26T04:40:08.735Z,94.24
2022-10-26T04:42:54.331Z,94.52
2022-10-26T04:45:39.167Z,94.53
2022-10-26T04:51:14.989Z,94.50
2022-10-26T04:54:00.322Z,94.68
2022-10-26T04:59:31.385Z,93.91
2022-10-26T05:02:16.897Z,94.97
2022-10-26T05:07:55.753Z,94.13
2022-10-26T05:10:40.943Z,94.05
2022-10-26T05:16:12.523Z,94.43
2022-10-26T05:18:57.850Z,94.44
2022-10-26T05:24:33.468Z,94.71
2022-10-26T05:27:18.604Z,94.86
2022-10-26T05:30:04.283Z,94.74
2022-10-26T05:32:56.899Z,94.75
2022-10-26T05:35:42.674Z,94.55
2022-10-26T05:38:27.970Z,94.22
2022-10-26T05:41:13.420Z,94.28
2022-10-26T05:43:58.873Z,94.50
2022-10-26T05:46:46.860Z,94.47
2022-10-26T05:49:32.114Z,94.14
2022-10-26T05:52:17.420Z,94.16
2022-10-26T05:55:02.949Z,94.31
2022-10-26T05:57:48.355Z,94.15
2022-10-26T06:00:34.131Z,94.16
2022-10-26T06:03:27.604Z,93.69
2022-10-26T06:06:13.561Z,94.06
2022-10-26T06:08:58.709Z,93.54
2022-10-26T06:11:44.499Z,93.80
2022-10-26T06:14:30.130Z,94.02
2022-10-26T06:17:43.095Z,94.21
2022-10-26T06:20:44.701Z,94.58
2022-10-26T06:23:45.325Z,94.21
2022-10-26T06:27:05.783Z,93.91
2022-10-26T06:30:11.678Z,93.86
2022-10-26T06:33:05.808Z,93.02
2022-10-26T06:36:17.655Z,92.83
2022-10-26T06:39:07.114Z,92.65
2022-10-26T06:41:52.989Z,92.34
2022-10-26T06:44:40.824Z,92.22
2022-10-26T06:47:53.782Z,91.90
2022-10-26T06:50:52.543Z,91.70
2022-10-26T06:53:57.178Z,91.41
2022-10-26T06:56:45.260Z,90.89
2022-10-26T06:59:57.106Z,90.68
2022-10-26T07:02:42.561Z,90.25
2022-10-26T07:05:28.090Z,90.26
2022-10-26T07:08:13.638Z,89.92
2022-10-26T07:10:59.012Z,89.83
2022-10-26T07:13:44.334Z,89.93
2022-10-26T07:16:29.600Z,90.01
2022-10-26T07:19:15.005Z,89.64
2022-10-26T07:22:01.140Z,89.61
2022-10-26T07:24:50.238Z,89.67
2022-10-26T07:27:35.886Z,89.34
2022-10-26T07:30:21.177Z,88.73
2022-10-26T07:33:14.323Z,88.85
2022-10-26T07:35:59.902Z,89.00
2022-10-26T07:38:44.883Z,88.43
2022-10-26T07:41:30.491Z,87.93
2022-10-26T07:44:19.377Z,87.64
2022-10-26T07:47:58.003Z,87.55
2022-10-26T07:50:51.757Z,87.35
2022-10-26T07:54:18.641Z,87.42
2022-10-26T07:57:07.450Z,86.76
2022-10-26T07:59:56.123Z,86.27
2022-10-26T08:02:41.344Z,86.55
2022-10-26T08:05:26.636Z,86.41
2022-10-26T08:08:12.156Z,86.82
2022-10-26T08:10:58.288Z,85.75
2022-10-26T08:13:43.575Z,85.13
2022-10-26T08:16:28.941Z,85.09
2022-10-26T08:19:14.024Z,84.89
2022-10-26T08:21:59.801Z,84.13
2022-10-26T08:24:46.907Z,84.33
2022-10-26T08:27:32.506Z,83.07
2022-10-26T08:30:18.359Z,78.37
2022-10-26T08:33:06.562Z,74.47
2022-10-26T08:35:59.916Z,69.77
2022-10-26T08:38:48.391Z,67.64
2022-10-26T08:41:43.394Z,66.72
2022-10-26T08:44:45.259Z,65.91
2022-10-26T08:47:46.192Z,67.84
2022-10-26T08:50:45.028Z,69.73
2022-10-26T08:53:44.433Z,68.86
2022-10-26T08:56:44.934Z,65.26
2022-10-26T08:59:40.617Z,61.92
2022-10-26T09:02:26.126Z,60.93
2022-10-26T09:05:16.513Z,61.72
2022-10-26T09:08:24.244Z,63.92
2022-10-26T09:11:34.430Z,66.48
2022-10-26T09:14:40.554Z,67.97
2022-10-26T09:17:46.514Z,69.89
2022-10-26T09:21:08.683Z,70.92
2022-10-26T09:24:00.421Z,71.33
2022-10-26T09:27:01.020Z,69.62
2022-10-26T09:29:49.175Z,68.73
2022-10-26T09:32:44.625Z,68.79
2022-10-26T09:35:41.983Z,69.20
2022-10-26T09:38:37.234Z,69.37
2022-10-26T09:41:38.266Z,69.57
2022-10-26T09:44:42.403Z,69.94
2022-10-26T09:47:35.895Z,70.73
2022-10-26T09:50:28.977Z,70.52
2022-10-26T09:53:14.644Z,70.04
2022-10-26T09:56:10.197Z,70.05
2022-10-26T09:59:05.662Z,69.75
2022-10-26T10:01:51.457Z,70.00
2022-10-26T10:04:48.780Z,70.14
2022-10-26T10:07:37.803Z,69.64
2022-10-26T10:10:25.028Z,69.07
2022-10-26T10:13:16.563Z,69.80
2022-10-26T10:16:03.619Z,68.42
2022-10-26T10:18:59.992Z,68.18
2022-10-26T10:21:49.991Z,67.72
2022-10-26T10:24:37.272Z,67.65
2022-10-26T10:27:23.352Z,66.80
2022-10-26T10:30:23.825Z,67.19
2022-10-26T10:33:12.681Z,67.33
2022-10-26T10:35:58.555Z,67.51
2022-10-26T10:38:45.994Z,67.27
2022-10-26T10:41:36.395Z,67.06
2022-10-26T10:44:29.745Z,67.53
2022-10-26T10:47:22.685Z,66.79
2022-10-26T10:50:17.570Z,66.41
2022-10-26T10:53:25.338Z,66.44
2022-10-26T10:56:31.452Z,66.32
2022-10-26T10:59:26.136Z,66.03
2022-10-26T11:02:11.484Z,66.54
2022-10-26T11:05:27.359Z,65.81
2022-10-26T11:08:21.921Z,65.51
2022-10-26T11:11:19.093Z,64.71
2022-10-26T11:14:20.785Z,64.83
2022-10-26T11:17:24.313Z,64.36
2022-10-26T11:20:19.172Z,63.90
2022-10-26T11:23:09.380Z,63.76
2022-10-26T11:26:04.832Z,62.84
2022-10-26T11:29:08.036Z,63.17
2022-10-26T11:32:01.442Z,61.87
2022-10-26T11:34:53.951Z,61.95
2022-10-26T11:37:54.541Z,61.85
2022-10-26T11:41:06.925Z,62.76
2022-10-26T11:44:05.586Z,62.34
2022-10-26T11:47:05.897Z,62.40
2022-10-26T11:50:14.657Z,61.62
2022-10-26T11:53:21.808Z,61.33
2022-10-26T11:56:19.488Z,60.72
2022-10-26T11:59:06.209Z,60.56
2022-10-26T12:01:56.461Z,61.64
2022-10-26T12:04:45.045Z,61.68
2022-10-26T12:07:36.495Z,62.17
2022-10-26T12:10:28.975Z,61.27
2022-10-26T12:13:29.755Z,60.79
2022-10-26T12:16:43.092Z,60.12
2022-10-26T12:20:13.265Z,65.52
2022-10-26T12:22:59.096Z,65.81
2022-10-26T12:25:45.144Z,65.39
2022-10-26T12:28:36.949Z,62.63
2022-10-26T12:31:37.511Z,61.26
2022-10-26T12:34:32.060Z,61.16
2022-10-26T12:37:37.613Z,61.13
2022-10-26T12:40:34.735Z,62.33
2022-10-26T12:43:24.908Z,61.39
2022-10-26T12:46:16.255Z,61.48
2022-10-26T12:49:06.323Z,61.36
2022-10-26T12:51:52.657Z,61.03
2022-10-26T12:54:50.334Z,60.18
2022-10-26T12:58:12.199Z,59.22
2022-10-26T13:01:00.566Z,60.13
2022-10-26T13:04:09.062Z,59.52
2022-10-26T13:07:32.925Z,59.41
2022-10-26T13:11:22.028Z,59.77
2022-10-26T13:13:56.008Z,60.25
2022-10-26T13:16:45.853Z,60.29
2022-10-26T13:19:42.353Z,60.82
2022-10-26T13:22:28.363Z,60.65
2022-10-26T13:25:39.119Z,61.06
2022-10-26T13:28:35.729Z,61.13
2022-10-26T13:31:41.548Z,60.93
2022-10-26T13:34:31.360Z,61.22
2022-10-26T13:37:27.207Z,61.81
2022-10-26T13:40:20.909Z,62.06
2022-10-26T13:43:11.600Z,63.01
2022-10-26T13:46:01.305Z,63.14
2022-10-26T13:48:47.239Z,63.48
2022-10-26T13:51:41.084Z,63.07
2022-10-26T13:54:42.961Z,62.97
2022-10-26T13:57:39.459Z,63.17
2022-10-26T14:00:24.988Z,63.35
2022-10-26T14:03:14.719Z,63.28
2022-10-26T14:05:59.760Z,63.27
2022-10-26T14:08:47.343Z,63.59
2022-10-26T14:11:36.903Z,63.96
2022-10-26T14:14:29.413Z,64.06
2022-10-26T14:17:25.498Z,63.69
2022-10-26T14:20:23.186Z,63.99
2022-10-26T14:23:35.432Z,64.44
2022-10-26T14:26:23.634Z,64.51
2022-10-26T14:29:24.850Z,64.60
2022-10-26T14:32:27.853Z,64.63
2022-10-26T14:35:14.348Z,64.96
2022-10-26T14:38:06.916Z,65.39
2022-10-26T14:40:54.798Z,65.32
2022-10-26T14:43:40.350Z,65.80
2022-10-26T14:46:28.202Z,66.19
2022-10-26T14:49:20.453Z,66.77
2022-10-26T14:52:06.401Z,67.23
2022-10-26T14:55:06.920Z,67.52
2022-10-26T14:58:06.526Z,68.10
2022-10-26T15:01:14.566Z,68.34
2022-10-26T15:04:06.495Z,68.66
2022-10-26T15:09:47.966Z,69.07
2022-10-26T15:12:38.796Z,69.59
2022-10-26T15:15:25.944Z,69.68
2022-10-26T15:18:21.551Z,70.19
2022-10-26T15:21:28.635Z,70.18
2022-10-26T15:24:20.090Z,70.45
2022-10-26T15:27:15.898Z,72.21
2022-10-26T15:30:28.045Z,72.51
2022-10-26T15:33:22.418Z,73.24
2022-10-26T15:36:07.766Z,72.76
2022-10-26T15:38:53.712Z,72.79
2022-10-26T15:41:45.968Z,73.22
2022-10-26T15:44:31.376Z,72.99
2022-10-26T15:47:19.214Z,73.17
2022-10-26T15:50:13.001Z,73.81
2022-10-26T15:53:06.239Z,73.92
2022-10-26T15:55:53.604Z,74.42
2022-10-26T15:58:39.143Z,74.65
2022-10-26T16:01:26.594Z,75.20
2022-10-26T16:04:14.655Z,75.38
2022-10-26T16:07:05.331Z,75.65
2022-10-26T16:09:50.889Z,76.02
2022-10-26T16:12:35.989Z,76.34
2022-10-26T16:15:25.122Z,76.40
2022-10-26T16:18:10.424Z,76.48
2022-10-26T16:20:55.876Z,76.82
2022-10-26T16:23:42.098Z,76.99
2022-10-26T16:26:27.768Z,77.03
2022-10-26T16:29:13.289Z,77.07
2022-10-26T16:31:58.506Z,77.33
2022-10-26T16:34:43.522Z,77.24
2022-10-26T16:37:30.196Z,77.60
2022-10-26T16:40:15.404Z,77.69
2022-10-26T16:43:00.328Z,77.65
2022-10-26T16:45:45.851Z,77.86
2022-10-26T16:48:30.996Z,78.40
2022-10-26T16:51:19.326Z,78.43
2022-10-26T16:54:05.228Z,78.49
2022-10-26T16:56:50.626Z,78.59
2022-10-26T16:59:35.783Z,78.98
2022-10-26T17:02:21.108Z,78.78
2022-10-26T17:05:07.367Z,78.70
2022-10-26T17:07:53.612Z,78.98
2022-10-26T17:10:39.087Z,79.00
2022-10-26T17:13:24.584Z,79.24
2022-10-26T17:16:18.198Z,79.02
2022-10-26T17:19:03.430Z,81.38
2022-10-26T17:21:48.761Z,80.61
2022-10-26T17:24:34.170Z,80.16
2022-10-26T17:27:20.317Z,80.21
2022-10-26T17:30:05.776Z,80.10
2022-10-26T17:32:51.835Z,80.06
2022-10-26T17:35:37.827Z,79.98
2022-10-26T17:38:23.064Z,80.25
2022-10-26T17:41:13.951Z,80.48
2022-10-26T17:43:59.072Z,80.79
2022-10-26T17:46:44.791Z,80.87
2022-10-26T17:49:35.112Z,80.60
2022-10-26T17:52:24.564Z,81.04
2022-10-26T17:55:10.136Z,80.79
2022-10-26T17:57:55.431Z,81.22
2022-10-26T18:00:41.035Z,81.05
2022-10-26T18:03:27.800Z,81.21
2022-10-26T18:06:13.079Z,81.29
2022-10-26T18:08:58.947Z,81.65
2022-10-26T18:11:44.215Z,81.56
2022-10-26T18:14:29.847Z,81.63
2022-10-26T18:17:15.558Z,81.88
2022-10-26T18:20:01.184Z,82.02
2022-10-26T18:22:47.981Z,81.85
2022-10-26T18:25:33.845Z,82.05
2022-10-26T18:28:19.124Z,82.14
2022-10-26T18:31:07.073Z,82.35
2022-10-26T18:34:00.183Z,82.35
2022-10-26T18:36:45.566Z,82.27
2022-10-26T18:39:30.761Z,82.41
2022-10-26T18:42:16.054Z,82.61
2022-10-26T18:45:03.343Z,82.70
2022-10-26T18:47:49.695Z,82.56
2022-10-26T18:50:35.802Z,82.71
2022-10-26T18:53:21.253Z,82.66
2022-10-26T18:56:09.325Z,82.83
2022-10-26T18:59:00.092Z,82.93
2022-10-26T19:01:46.853Z,82.89
2022-10-26T19:04:33.881Z,82.58
2022-10-26T19:07:20.161Z,82.87
2022-10-26T19:10:06.186Z,82.89
2022-10-26T19:12:52.543Z,82.73
2022-10-26T19:15:37.866Z,82.85
2022-10-26T19:18:25.865Z,82.43
2022-10-26T19:21:14.223Z,82.95
2022-10-26T19:24:01.178Z,82.90
2022-10-26T19:26:47.461Z,83.13
2022-10-26T19:29:32.729Z,83.17
2022-10-26T19:32:18.179Z,83.29
2022-10-26T19:35:03.318Z,83.52
2022-10-26T19:37:49.012Z,83.80
2022-10-26T19:40:34.385Z,84.06
2022-10-26T19:43:19.797Z,83.96
2022-10-26T19:46:10.679Z,84.31
2022-10-26T19:48:58.800Z,84.17
2022-10-26T19:51:44.188Z,84.75
2022-10-26T19:54:29.550Z,84.93
2022-10-26T19:57:14.899Z,85.38
2022-10-26T20:00:00.229Z,85.17
2022-10-26T20:02:45.399Z,85.54
2022-10-26T20:05:32.174Z,85.73
2022-10-26T20:08:17.151Z,86.03
2022-10-26T20:11:02.959Z,86.02
2022-10-26T20:13:48.691Z,86.48
2022-10-26T20:16:34.034Z,86.40
2022-10-26T20:19:19.519Z,86.60
2022-10-26T20:22:04.779Z,86.84
2022-10-26T20:24:49.784Z,87.06
2022-10-26T20:27:37.404Z,86.99
2022-10-26T20:30:22.711Z,87.21
2022-10-26T20:33:12.626Z,87.47
2022-10-26T20:35:58.929Z,87.51
2022-10-26T20:38:44.469Z,87.89
2022-10-26T20:41:29.928Z,88.19
2022-10-26T20:44:26.750Z,88.21
2022-10-26T20:47:12.586Z,88.48
2022-10-26T20:49:58.266Z,88.21
2022-10-26T20:52:51.665Z,88.64
2022-10-26T20:55:44.591Z,88.78
2022-10-26T20:58:39.032Z,88.52
2022-10-26T21:01:42.464Z,88.82
2022-10-26T21:04:27.465Z,89.60
2022-10-26T21:07:13.236Z,89.21
2022-10-26T21:09:58.314Z,89.77
2022-10-26T21:12:45.306Z,89.80
2022-10-26T21:15:30.898Z,89.62
2022-10-26T21:18:16.109Z,90.07
2022-10-26T21:21:02.006Z,90.59
2022-10-26T21:23:47.958Z,90.57
2022-10-26T21:26:33.380Z,90.38
2022-10-26T21:29:18.842Z,90.50
2022-10-26T21:32:04.269Z,90.34
2022-10-26T21:34:49.589Z,90.82
2022-10-26T21:37:34.925Z,90.74
2022-10-26T21:40:20.619Z,90.75
2022-10-26T21:43:06.113Z,91.29
2022-10-26T21:45:56.380Z,91.23
2022-10-26T21:48:42.475Z,91.38
2022-10-26T21:51:27.595Z,91.26
2022-10-26T21:54:20.370Z,91.69
2022-10-26T21:57:05.315Z,91.95
2022-10-26T22:00:10.938Z,92.03
2022-10-26T22:03:21.971Z,91.90
2022-10-26T22:06:35.472Z,91.91
2022-10-26T22:09:20.718Z,92.39
2022-10-26T22:12:07.706Z,92.13
2022-10-26T22:14:52.898Z,92.41
2022-10-26T22:17:39.617Z,92.72
2022-10-26T22:20:24.918Z,92.80
2022-10-26T22:23:10.760Z,92.50
2022-10-26T22:26:01.367Z,92.44
2022-10-26T22:28:52.315Z,92.81
2022-10-26T22:31:40.293Z,92.85
2022-10-26T22:34:25.571Z,92.50
2022-10-26T22:37:10.618Z,92.96
2022-10-26T22:39:56.146Z,92.85
2022-10-26T22:42:41.211Z,93.13
2022-10-26T22:45:26.597Z,92.99
2022-10-26T22:48:11.975Z,93.32
2022-10-26T22:50:58.061Z,93.35
2022-10-26T22:53:43.590Z,93.43
2022-10-26T22:56:29.672Z,93.32
2022-10-26T22:59:14.816Z,93.17
2022-10-26T23:02:00.385Z,93.36
2022-10-26T23:07:35.811Z,93.56
2022-10-26T23:10:21.065Z,93.50
2022-10-26T23:13:06.430Z,93.45
2022-10-26T23:15:51.722Z,93.65
2022-10-26T23:18:37.401Z,93.51
2022-10-26T23:21:24.968Z,93.38
2022-10-26T23:24:10.304Z,93.27
2022-10-26T23:26:55.378Z,93.71
2022-10-26T23:29:40.918Z,93.54
2022-10-26T23:32:26.335Z,93.93
2022-10-26T23:35:11.888Z,93.78
2022-10-26T23:37:58.707Z,93.59
2022-10-26T23:40:55.375Z,93.65
2022-10-26T23:43:41.136Z,93.65
2022-10-26T23:49:16.392Z,93.46
2022-10-26T23:52:01.834Z,94.03
2022-10-26T23:54:47.090Z,93.74
2022-10-26T23:57:32.567Z,94.04
